createdAt,value
2022-09-14T00:04:02.270Z,6.83
2022-09-14T00:08:55.802Z,6.67
2022-09-14T00:13:48.375Z,6.90
2022-09-14T00:18:42.379Z,7.37
2022-09-14T00:23:35.763Z,8.70
2022-09-14T00:28:28.236Z,9.40
2022-09-14T00:33:20.694Z,10.27
2022-09-14T00:38:14.535Z,11.13
2022-09-14T00:43:14.441Z,13.40
2022-09-14T00:48:06.982Z,12.80
2022-09-14T00:52:59.497Z,13.30
2022-09-14T00:57:54.346Z,13.57
2022-09-14T01:02:46.833Z,15.80
2022-09-14T01:07:43.920Z,16.10
2022-09-14T01:12:40.946Z,13.20
2022-09-14T01:17:39.140Z,13.67
2022-09-14T01:22:36.070Z,13.47
2022-09-14T01:27:32.877Z,13.73
2022-09-14T01:32:27.237Z,14.40
2022-09-14T01:37:21.621Z,16.93
2022-09-14T01:42:14.646Z,17.80
2022-09-14T01:47:10.652Z,20.47
2022-09-14T01:52:06.428Z,19.27
2022-09-14T01:57:00.662Z,21.30
2022-09-14T02:01:55.876Z,22.50
2022-09-14T02:06:50.287Z,24.57
2022-09-14T02:11:42.794Z,25.73
2022-09-14T02:16:35.714Z,28.40
2022-09-14T02:21:29.717Z,28.27
2022-09-14T02:26:24.105Z,27.20
2022-09-14T02:31:19.527Z,28.67
2022-09-14T02:36:14.606Z,28.70
2022-09-14T02:41:12.113Z,28.57
2022-09-14T02:46:11.130Z,26.87
2022-09-14T02:51:05.706Z,28.80
2022-09-14T02:56:04.327Z,16.00
2022-09-14T03:00:56.846Z,11.47
2022-09-14T03:05:50.729Z,10.50
2022-09-14T03:10:44.197Z,11.33
2022-09-14T03:15:37.035Z,10.30
2022-09-14T03:20:30.486Z,10.20
2022-09-14T03:25:24.322Z,11.30
2022-09-14T03:30:16.921Z,11.03
2022-09-14T03:35:09.774Z,10.80
2022-09-14T03:40:02.499Z,10.37
2022-09-14T03:44:56.396Z,9.43
2022-09-14T03:49:48.881Z,11.57
2022-09-14T03:54:41.501Z,10.27
2022-09-14T03:59:33.968Z,9.60
2022-09-14T04:04:27.881Z,9.27
2022-09-14T04:09:20.359Z,9.53
2022-09-14T04:14:13.039Z,9.73
2022-09-14T04:19:05.526Z,9.70
2022-09-14T04:24:16.313Z,9.53
2022-09-14T04:29:10.533Z,10.00
2022-09-14T04:34:03.020Z,9.60
2022-09-14T04:38:57.049Z,11.27
2022-09-14T04:43:51.840Z,10.67
2022-09-14T04:48:44.662Z,10.67
2022-09-14T04:53:37.944Z,10.60
2022-09-14T04:58:30.834Z,10.13
2022-09-14T05:03:24.714Z,11.50
2022-09-14T05:08:17.454Z,10.87
2022-09-14T05:13:09.944Z,10.90
2022-09-14T05:18:02.890Z,10.77
2022-09-14T05:22:56.684Z,10.60
2022-09-14T05:27:49.325Z,11.00
2022-09-14T05:32:41.804Z,11.43
2022-09-14T05:37:34.289Z,12.80
2022-09-14T05:42:28.122Z,13.50
2022-09-14T05:47:20.586Z,13.63
2022-09-14T05:52:13.057Z,13.60
2022-09-14T05:57:05.700Z,13.80
2022-09-14T06:02:00.697Z,12.40
2022-09-14T06:07:17.025Z,12.87
2022-09-14T06:12:05.747Z,12.90
2022-09-14T06:16:59.599Z,12.70
2022-09-14T06:21:52.073Z,14.90
2022-09-14T06:26:44.539Z,14.40
2022-09-14T06:31:37.063Z,13.20
2022-09-14T06:36:31.012Z,15.17
2022-09-14T06:41:26.424Z,14.50
2022-09-14T06:46:20.246Z,14.37
2022-09-14T06:51:13.569Z,11.87
2022-09-14T06:56:07.435Z,10.37
2022-09-14T07:01:02.262Z,10.87
2022-09-14T07:05:54.717Z,14.53
2022-09-14T07:10:56.466Z,12.40
2022-09-14T07:15:51.467Z,10.10
2022-09-14T07:20:43.924Z,9.30
2022-09-14T07:25:36.453Z,9.03
2022-09-14T07:30:29.015Z,8.47
2022-09-14T07:35:23.211Z,6.90
2022-09-14T07:40:15.799Z,7.80
2022-09-14T07:45:09.386Z,8.20
2022-09-14T07:50:05.520Z,6.97
2022-09-14T07:54:59.434Z,6.50
2022-09-14T07:59:51.916Z,6.77
2022-09-14T08:04:44.605Z,5.80
2022-09-14T08:09:38.333Z,5.60
2022-09-14T08:14:32.156Z,5.80
2022-09-14T08:19:24.622Z,5.90
2022-09-14T08:24:17.830Z,5.97
2022-09-14T08:29:10.381Z,5.27
2022-09-14T08:34:04.723Z,5.50
2022-09-14T08:38:57.163Z,5.00
2022-09-14T08:43:49.706Z,4.40
2022-09-14T08:48:46.037Z,5.10
2022-09-14T08:53:40.747Z,4.90
2022-09-14T08:58:47.590Z,4.77
2022-09-14T09:03:50.459Z,4.40
2022-09-14T09:08:49.880Z,4.50
2022-09-14T09:13:43.785Z,4.37
2022-09-14T09:18:38.151Z,4.50
2022-09-14T09:23:33.221Z,4.40
2022-09-14T09:28:28.526Z,4.27
2022-09-14T09:33:22.521Z,4.00
2022-09-14T09:38:50.334Z,4.17
2022-09-14T09:43:58.438Z,4.10
2022-09-14T09:48:52.367Z,4.30
2022-09-14T09:53:48.989Z,5.00
2022-09-14T09:58:41.500Z,4.03
2022-09-14T10:03:35.876Z,4.50
2022-09-14T10:08:34.159Z,4.10
2022-09-14T10:13:28.871Z,4.10
2022-09-14T10:18:21.544Z,3.80
2022-09-14T10:23:25.156Z,4.07
2022-09-14T10:28:23.672Z,3.87
2022-09-14T10:33:17.279Z,4.10
2022-09-14T10:38:16.421Z,4.00
2022-09-14T10:43:12.357Z,4.23
2022-09-14T10:48:19.275Z,4.27
2022-09-14T10:53:18.326Z,5.17
2022-09-14T10:58:27.611Z,4.33
2022-09-14T11:03:34.336Z,4.40
2022-09-14T11:08:32.138Z,4.10
2022-09-14T11:13:38.721Z,4.20
2022-09-14T11:18:38.548Z,4.27
2022-09-14T11:23:37.528Z,4.40
2022-09-14T11:28:31.918Z,4.43
2022-09-14T11:33:31.247Z,4.87
2022-09-14T11:38:28.021Z,6.10
2022-09-14T11:43:23.064Z,8.40
2022-09-14T11:48:42.306Z,10.23
2022-09-14T11:53:33.664Z,11.50
2022-09-14T11:58:27.510Z,12.40
2022-09-14T12:03:21.243Z,12.97
2022-09-14T12:08:27.786Z,11.10
2022-09-14T12:13:21.671Z,11.30
2022-09-14T12:18:21.979Z,11.13
2022-09-14T12:23:25.592Z,10.67
2022-09-14T12:28:30.626Z,11.23
2022-09-14T12:33:42.802Z,8.33
2022-09-14T12:38:56.507Z,9.07
2022-09-14T12:43:55.107Z,7.37
2022-09-14T12:48:58.829Z,7.70
2022-09-14T12:53:56.864Z,8.70
2022-09-14T12:59:00.250Z,5.90
2022-09-14T13:03:54.237Z,5.20
2022-09-14T13:08:47.793Z,4.00
2022-09-14T13:13:40.335Z,4.03
2022-09-14T13:18:35.697Z,3.50
2022-09-14T13:23:30.187Z,2.60
2022-09-14T13:28:22.786Z,2.33
2022-09-14T13:33:16.924Z,2.30
2022-09-14T13:38:14.394Z,2.10
2022-09-14T13:43:07.172Z,2.20
2022-09-14T13:48:00.197Z,1.90
2022-09-14T13:53:08.330Z,1.70
2022-09-14T13:58:12.885Z,1.80
2022-09-14T14:03:05.542Z,1.60
2022-09-14T14:07:59.115Z,1.77
2022-09-14T14:12:51.588Z,1.87
2022-09-14T14:17:45.507Z,1.70
2022-09-14T14:22:39.224Z,2.17
2022-09-14T14:27:33.996Z,1.70
2022-09-14T14:32:26.605Z,1.90
2022-09-14T14:37:20.849Z,1.93
2022-09-14T14:42:14.503Z,1.63
2022-09-14T14:47:07.252Z,1.70
2022-09-14T14:51:59.786Z,2.10
2022-09-14T14:56:53.959Z,1.80
2022-09-14T15:01:46.418Z,2.13
2022-09-14T15:06:39.231Z,2.00
2022-09-14T15:11:31.846Z,2.33
2022-09-14T15:16:25.755Z,2.00
2022-09-14T15:21:18.185Z,2.03
2022-09-14T15:26:10.633Z,2.03
2022-09-14T15:31:07.124Z,2.00
2022-09-14T15:36:01.683Z,1.93
2022-09-14T15:40:54.161Z,2.60
2022-09-14T15:45:46.701Z,2.40
2022-09-14T15:50:41.450Z,2.00
2022-09-14T15:55:35.455Z,2.27
2022-09-14T16:00:28.126Z,2.10
2022-09-14T16:05:20.872Z,2.20
2022-09-14T16:10:13.332Z,2.40
2022-09-14T16:15:07.985Z,2.30
2022-09-14T16:20:00.462Z,2.30
2022-09-14T16:24:52.960Z,2.33
2022-09-14T16:29:45.394Z,2.33
2022-09-14T16:34:39.179Z,2.13
2022-09-14T16:39:31.852Z,2.50
2022-09-14T16:44:25.526Z,2.53
2022-09-14T16:49:18.328Z,2.10
2022-09-14T16:54:15.454Z,2.23
2022-09-14T16:59:08.456Z,2.70
2022-09-14T17:04:01.669Z,2.50
2022-09-14T17:08:54.815Z,2.67
2022-09-14T17:13:48.612Z,2.80
2022-09-14T17:18:41.961Z,2.40
2022-09-14T17:23:34.767Z,2.63
2022-09-14T17:28:28.197Z,2.60
2022-09-14T17:33:22.300Z,2.90
2022-09-14T17:38:14.776Z,2.90
2022-09-14T17:43:07.233Z,3.10
2022-09-14T17:47:59.661Z,3.50
2022-09-14T17:52:53.475Z,4.10
2022-09-14T17:57:46.090Z,4.70
2022-09-14T18:02:38.593Z,4.50
2022-09-14T18:07:31.118Z,3.60
2022-09-14T18:12:25.413Z,3.60
2022-09-14T18:17:17.875Z,4.17
2022-09-14T18:22:10.530Z,4.10
2022-09-14T18:27:02.985Z,5.87
2022-09-14T18:31:57.084Z,5.03
2022-09-14T18:36:51.235Z,4.07
2022-09-14T18:41:44.159Z,4.67
2022-09-14T18:46:37.758Z,6.73
2022-09-14T18:51:32.323Z,5.87
2022-09-14T18:56:25.071Z,5.60
2022-09-14T19:01:17.939Z,5.40
2022-09-14T19:06:11.807Z,4.53
2022-09-14T19:11:06.702Z,4.77
2022-09-14T19:15:59.212Z,5.40
2022-09-14T19:21:05.935Z,5.03
2022-09-14T19:26:02.648Z,5.53
2022-09-14T19:30:56.495Z,5.87
2022-09-14T19:35:49.051Z,7.70
2022-09-14T19:40:50.827Z,8.20
2022-09-14T19:45:43.331Z,5.07
2022-09-14T19:50:37.154Z,4.43
2022-09-14T19:55:29.714Z,3.80
2022-09-14T20:00:22.177Z,5.30
2022-09-14T20:05:15.576Z,5.23
2022-09-14T20:10:10.291Z,6.30
2022-09-14T20:15:02.796Z,5.73
2022-09-14T20:19:55.459Z,5.20
2022-09-14T20:24:47.953Z,4.77
2022-09-14T20:29:41.760Z,5.30
2022-09-14T20:34:34.947Z,5.50
2022-09-14T20:39:27.887Z,6.90
2022-09-14T20:44:22.289Z,6.20
2022-09-14T20:49:17.374Z,5.17
2022-09-14T20:54:11.394Z,6.60
2022-09-14T20:59:05.417Z,6.03
2022-09-14T21:04:03.277Z,7.97
2022-09-14T21:08:57.149Z,7.10
2022-09-14T21:13:50.309Z,6.50
2022-09-14T21:18:43.152Z,4.40
2022-09-14T21:23:35.617Z,4.27
2022-09-14T21:28:29.522Z,5.43
2022-09-14T21:33:21.993Z,5.73
2022-09-14T21:38:14.607Z,4.30
2022-09-14T21:43:07.056Z,4.00
2022-09-14T21:48:00.885Z,4.30
2022-09-14T21:52:53.363Z,5.00
2022-09-14T21:57:47.953Z,4.90
2022-09-14T22:02:40.576Z,3.40
2022-09-14T22:07:35.466Z,3.00
2022-09-14T22:12:27.957Z,2.60
2022-09-14T22:17:20.439Z,2.80
2022-09-14T22:22:12.990Z,2.60
2022-09-14T22:27:07.547Z,3.00
2022-09-14T22:32:00.080Z,3.53
2022-09-14T22:36:52.579Z,3.30
2022-09-14T22:41:45.094Z,3.90
2022-09-14T22:46:39.338Z,4.03
2022-09-14T22:51:32.334Z,4.30
2022-09-14T22:56:26.139Z,4.17
2022-09-14T23:01:19.368Z,4.33
2022-09-14T23:06:13.605Z,5.00
2022-09-14T23:11:06.771Z,5.60
2022-09-14T23:16:01.033Z,5.80
2022-09-14T23:20:53.487Z,5.27
2022-09-14T23:25:47.395Z,10.63
2022-09-14T23:30:39.999Z,8.57
2022-09-14T23:35:36.909Z,5.60
2022-09-14T23:40:30.314Z,5.00
2022-09-14T23:45:24.233Z,3.70
2022-09-14T23:50:16.740Z,4.37
2022-09-14T23:55:09.705Z,3.80
